Portada
METAR-TAF:

METAR-TAF

Aeropuertos :

Aeropuerto Internacional de Pittsburgh

Pittsburgh, Pensilvania, Estados Unidos

latitud: 40-30-14N, longitud: 080-15-59W, altitud: 366 m

Observación

El informe se hizo hace 46 minutos, a las 13:51 UTC
Viento 5 kt del este-sureste
Temperatura 0°C
Humedad 59%
Presión 1021 hPa
Visibilidad: 16.1 km
Cielo despejado

METAR: KPIT 171351Z 11005KT 10SM CLR 00/M07 A3015 RMK AO2 SLP229 T00001072

Hora: 09:37 (14:37 UTC)

Pronóstico

El informe se hizo hace 3 horas y 10 minutos, a las 11:27 UTC
Pronóstico válido del 17 a las 12 UTC al 18 a las 18 UTC
Viento 6 kt del este-sureste
Visibilidad: 10 km
Cielo despejado
A partir de las 18 a las 1200 UTC
Viento 3 kt del sureste
Visibilidad: 10 km
Cielo cubierto a una altura de 5000 ft

TAF: KPIT 171127Z 1712/1818 11006KT P6SM SKC FM181200 13003KT P6SM OVC050

Observaciones y pronósticos meteorológicos de más de 4000 aeropuertos (mensajes METAR y TAF).

Los puntos amarillos y rojos representan las estaciones disponibles.

Ponga el ratón en el punto deseado para ver el nombre de la estación.

Haga clic para ver las observaciones y los pronósticos meteorológicos.

Para cambiar el mapa : haga clic en los botones verdes con una cruz de color negro para hacer un zoom, en el botón verde con un guión para alejar o en las flechas verdes para mapas adyacentes.


METAR-TAF: